sensor_id;sensor_type;location;lat;lon;timestamp;P1;durP1;ratioP1;P2;durP2;ratioP2
35522;SDS011;61478;50.820;4.330;2024-01-07T00:00:08;10.23;;;9.13;;
35522;SDS011;61478;50.820;4.330;2024-01-07T00:02:34;10.80;;;9.70;;
35522;SDS011;61478;50.820;4.330;2024-01-07T00:05:04;10.98;;;9.48;;
35522;SDS011;61478;50.820;4.330;2024-01-07T00:07:33;10.93;;;9.82;;
35522;SDS011;61478;50.820;4.330;2024-01-07T00:10:02;13.48;;;10.10;;
35522;SDS011;61478;50.820;4.330;2024-01-07T00:12:28;11.45;;;9.38;;
35522;SDS011;61478;50.820;4.330;2024-01-07T00:14:54;10.30;;;9.27;;
35522;SDS011;61478;50.820;4.330;2024-01-07T00:17:20;10.65;;;9.60;;
35522;SDS011;61478;50.820;4.330;2024-01-07T00:19:46;10.60;;;9.60;;
35522;SDS011;61478;50.820;4.330;2024-01-07T00:22:12;11.18;;;9.98;;
35522;SDS011;61478;50.820;4.330;2024-01-07T00:24:44;13.70;;;10.10;;
35522;SDS011;61478;50.820;4.330;2024-01-07T00:27:22;10.35;;;9.20;;
35522;SDS011;61478;50.820;4.330;2024-01-07T00:29:48;11.57;;;10.25;;
35522;SDS011;61478;50.820;4.330;2024-01-07T00:32:17;12.00;;;10.07;;
35522;SDS011;61478;50.820;4.330;2024-01-07T00:34:44;13.50;;;11.35;;
35522;SDS011;61478;50.820;4.330;2024-01-07T00:37:09;11.35;;;10.10;;
35522;SDS011;61478;50.820;4.330;2024-01-07T00:39:35;13.15;;;10.18;;
35522;SDS011;61478;50.820;4.330;2024-01-07T00:42:01;12.77;;;10.13;;
35522;SDS011;61478;50.820;4.330;2024-01-07T00:44:30;12.73;;;11.05;;
35522;SDS011;61478;50.820;4.330;2024-01-07T00:46:55;12.75;;;11.35;;
35522;SDS011;61478;50.820;4.330;2024-01-07T00:49:21;12.77;;;11.50;;
35522;SDS011;61478;50.820;4.330;2024-01-07T00:51:52;13.10;;;11.77;;
35522;SDS011;61478;50.820;4.330;2024-01-07T00:54:21;13.90;;;12.35;;
35522;SDS011;61478;50.820;4.330;2024-01-07T00:56:51;12.65;;;11.35;;
35522;SDS011;61478;50.820;4.330;2024-01-07T00:59:17;12.68;;;11.38;;
35522;SDS011;61478;50.820;4.330;2024-01-07T01:01:43;13.07;;;11.68;;
35522;SDS011;61478;50.820;4.330;2024-01-07T01:04:09;12.82;;;11.52;;
35522;SDS011;61478;50.820;4.330;2024-01-07T01:06:46;13.27;;;11.88;;
35522;SDS011;61478;50.820;4.330;2024-01-07T01:09:13;13.82;;;12.50;;
35522;SDS011;61478;50.820;4.330;2024-01-07T01:11:38;13.50;;;12.15;;
35522;SDS011;61478;50.820;4.330;2024-01-07T01:14:04;13.80;;;11.98;;
35522;SDS011;61478;50.820;4.330;2024-01-07T01:16:30;13.52;;;12.07;;
35522;SDS011;61478;50.820;4.330;2024-01-07T01:18:56;14.10;;;12.60;;
35522;SDS011;61478;50.820;4.330;2024-01-07T01:21:22;14.95;;;12.73;;
35522;SDS011;61478;50.820;4.330;2024-01-07T01:23:48;12.60;;;11.50;;
35522;SDS011;61478;50.820;4.330;2024-01-07T01:26:14;13.68;;;12.27;;
35522;SDS011;61478;50.820;4.330;2024-01-07T01:28:44;14.07;;;12.30;;
35522;SDS011;61478;50.820;4.330;2024-01-07T01:31:13;14.07;;;12.68;;
35522;SDS011;61478;50.820;4.330;2024-01-07T01:33:39;14.57;;;13.00;;
35522;SDS011;61478;50.820;4.330;2024-01-07T01:36:06;14.25;;;12.77;;
35522;SDS011;61478;50.820;4.330;2024-01-07T01:38:35;13.95;;;12.55;;
35522;SDS011;61478;50.820;4.330;2024-01-07T01:41:04;12.98;;;11.20;;
35522;SDS011;61478;50.820;4.330;2024-01-07T01:43:33;13.88;;;12.02;;
35522;SDS011;61478;50.820;4.330;2024-01-07T01:46:05;14.20;;;12.77;;
35522;SDS011;61478;50.820;4.330;2024-01-07T01:48:32;13.25;;;11.77;;
35522;SDS011;61478;50.820;4.330;2024-01-07T01:51:00;14.70;;;13.05;;
35522;SDS011;61478;50.820;4.330;2024-01-07T01:53:27;14.05;;;12.32;;
35522;SDS011;61478;50.820;4.330;2024-01-07T01:55:55;13.45;;;12.05;;
35522;SDS011;61478;50.820;4.330;2024-01-07T01:58:22;13.23;;;11.95;;
35522;SDS011;61478;50.820;4.330;2024-01-07T02:00:49;14.10;;;12.63;;
35522;SDS011;61478;50.820;4.330;2024-01-07T02:03:18;12.32;;;11.13;;
35522;SDS011;61478;50.820;4.330;2024-01-07T02:05:44;13.73;;;12.32;;
35522;SDS011;61478;50.820;4.330;2024-01-07T02:08:10;13.30;;;11.90;;
35522;SDS011;61478;50.820;4.330;2024-01-07T02:10:40;14.57;;;12.25;;
35522;SDS011;61478;50.820;4.330;2024-01-07T02:13:06;13.95;;;12.57;;
35522;SDS011;61478;50.820;4.330;2024-01-07T02:15:32;14.82;;;13.32;;
35522;SDS011;61478;50.820;4.330;2024-01-07T02:17:59;14.50;;;13.10;;
35522;SDS011;61478;50.820;4.330;2024-01-07T02:20:26;16.02;;;14.43;;
35522;SDS011;61478;50.820;4.330;2024-01-07T02:22:51;16.50;;;14.80;;
35522;SDS011;61478;50.820;4.330;2024-01-07T02:25:17;16.55;;;14.63;;
35522;SDS011;61478;50.820;4.330;2024-01-07T02:27:43;16.58;;;14.88;;
35522;SDS011;61478;50.820;4.330;2024-01-07T02:30:12;16.23;;;14.63;;
35522;SDS011;61478;50.820;4.330;2024-01-07T02:32:44;14.68;;;13.10;;
35522;SDS011;61478;50.820;4.330;2024-01-07T02:35:13;14.85;;;13.35;;
35522;SDS011;61478;50.820;4.330;2024-01-07T02:37:39;15.90;;;13.32;;
35522;SDS011;61478;50.820;4.330;2024-01-07T02:40:05;15.02;;;13.50;;
35522;SDS011;61478;50.820;4.330;2024-01-07T02:42:32;13.23;;;11.93;;
35522;SDS011;61478;50.820;4.330;2024-01-07T02:44:58;13.00;;;11.70;;
35522;SDS011;61478;50.820;4.330;2024-01-07T02:47:27;12.85;;;11.55;;
35522;SDS011;61478;50.820;4.330;2024-01-07T02:49:57;13.95;;;12.55;;
35522;SDS011;61478;50.820;4.330;2024-01-07T02:52:31;13.18;;;11.77;;
35522;SDS011;61478;50.820;4.330;2024-01-07T02:54:58;13.90;;;12.40;;
35522;SDS011;61478;50.820;4.330;2024-01-07T02:57:30;14.45;;;12.98;;
35522;SDS011;61478;50.820;4.330;2024-01-07T02:59:59;13.82;;;12.52;;
35522;SDS011;61478;50.820;4.330;2024-01-07T03:02:31;13.75;;;12.45;;
35522;SDS011;61478;50.820;4.330;2024-01-07T03:04:58;15.68;;;14.07;;
35522;SDS011;61478;50.820;4.330;2024-01-07T03:07:29;15.30;;;13.70;;
35522;SDS011;61478;50.820;4.330;2024-01-07T03:09:58;14.95;;;13.45;;
35522;SDS011;61478;50.820;4.330;2024-01-07T03:12:27;15.60;;;13.98;;
35522;SDS011;61478;50.820;4.330;2024-01-07T03:14:53;14.82;;;13.18;;
35522;SDS011;61478;50.820;4.330;2024-01-07T03:17:19;16.27;;;14.32;;
35522;SDS011;61478;50.820;4.330;2024-01-07T03:19:49;16.23;;;14.63;;
35522;SDS011;61478;50.820;4.330;2024-01-07T03:22:17;16.60;;;14.95;;
35522;SDS011;61478;50.820;4.330;2024-01-07T03:24:43;15.98;;;14.43;;
35522;SDS011;61478;50.820;4.330;2024-01-07T03:27:13;17.00;;;15.20;;
35522;SDS011;61478;50.820;4.330;2024-01-07T03:29:39;17.55;;;15.82;;
35522;SDS011;61478;50.820;4.330;2024-01-07T03:32:05;19.60;;;16.42;;
35522;SDS011;61478;50.820;4.330;2024-01-07T03:34:37;17.60;;;15.80;;
35522;SDS011;61478;50.820;4.330;2024-01-07T03:37:07;16.92;;;14.98;;
35522;SDS011;61478;50.820;4.330;2024-01-07T03:39:33;18.05;;;16.20;;
35522;SDS011;61478;50.820;4.330;2024-01-07T03:41:59;18.27;;;16.52;;
35522;SDS011;61478;50.820;4.330;2024-01-07T03:44:25;18.38;;;16.58;;
35522;SDS011;61478;50.820;4.330;2024-01-07T03:46:51;18.40;;;16.52;;
35522;SDS011;61478;50.820;4.330;2024-01-07T03:49:17;20.95;;;18.77;;
35522;SDS011;61478;50.820;4.330;2024-01-07T03:51:43;21.15;;;18.70;;
35522;SDS011;61478;50.820;4.330;2024-01-07T03:54:09;21.75;;;19.45;;
35522;SDS011;61478;50.820;4.330;2024-01-07T03:56:44;22.38;;;19.75;;
35522;SDS011;61478;50.820;4.330;2024-01-07T03:59:16;22.73;;;19.45;;
35522;SDS011;61478;50.820;4.330;2024-01-07T04:01:47;24.30;;;21.52;;
35522;SDS011;61478;50.820;4.330;2024-01-07T04:04:17;23.35;;;20.88;;
35522;SDS011;61478;50.820;4.330;2024-01-07T04:06:46;24.58;;;22.02;;
35522;SDS011;61478;50.820;4.330;2024-01-07T04:09:12;22.90;;;20.23;;
35522;SDS011;61478;50.820;4.330;2024-01-07T04:11:42;24.33;;;21.52;;
35522;SDS011;61478;50.820;4.330;2024-01-07T04:14:08;23.83;;;20.95;;
35522;SDS011;61478;50.820;4.330;2024-01-07T04:16:42;24.10;;;21.73;;
35522;SDS011;61478;50.820;4.330;2024-01-07T04:19:11;24.63;;;22.20;;
35522;SDS011;61478;50.820;4.330;2024-01-07T04:21:37;25.70;;;21.90;;
35522;SDS011;61478;50.820;4.330;2024-01-07T04:24:03;25.50;;;22.80;;
35522;SDS011;61478;50.820;4.330;2024-01-07T04:26:29;24.98;;;22.45;;
35522;SDS011;61478;50.820;4.330;2024-01-07T04:28:55;25.90;;;23.17;;
35522;SDS011;61478;50.820;4.330;2024-01-07T04:31:21;28.00;;;24.80;;
35522;SDS011;61478;50.820;4.330;2024-01-07T04:33:50;30.85;;;26.15;;
35522;SDS011;61478;50.820;4.330;2024-01-07T04:36:16;30.10;;;26.80;;
35522;SDS011;61478;50.820;4.330;2024-01-07T04:38:45;30.42;;;27.13;;
35522;SDS011;61478;50.820;4.330;2024-01-07T04:41:11;29.30;;;26.20;;
35522;SDS011;61478;50.820;4.330;2024-01-07T04:43:37;32.70;;;28.92;;
35522;SDS011;61478;50.820;4.330;2024-01-07T04:46:09;32.00;;;28.30;;
35522;SDS011;61478;50.820;4.330;2024-01-07T04:48:38;31.85;;;28.20;;
35522;SDS011;61478;50.820;4.330;2024-01-07T04:51:04;32.90;;;28.13;;
35522;SDS011;61478;50.820;4.330;2024-01-07T04:53:30;33.03;;;29.02;;
35522;SDS011;61478;50.820;4.330;2024-01-07T04:55:56;34.30;;;29.73;;
35522;SDS011;61478;50.820;4.330;2024-01-07T04:58:25;36.17;;;30.45;;
35522;SDS011;61478;50.820;4.330;2024-01-07T05:01:02;35.47;;;30.73;;
35522;SDS011;61478;50.820;4.330;2024-01-07T05:03:28;35.17;;;31.40;;
35522;SDS011;61478;50.820;4.330;2024-01-07T05:05:54;37.35;;;31.90;;
35522;SDS011;61478;50.820;4.330;2024-01-07T05:08:20;38.38;;;32.60;;
35522;SDS011;61478;50.820;4.330;2024-01-07T05:10:46;35.95;;;31.00;;
35522;SDS011;61478;50.820;4.330;2024-01-07T05:13:15;36.63;;;32.00;;
35522;SDS011;61478;50.820;4.330;2024-01-07T05:15:41;37.42;;;33.00;;
35522;SDS011;61478;50.820;4.330;2024-01-07T05:18:07;36.53;;;31.10;;
35522;SDS011;61478;50.820;4.330;2024-01-07T05:20:34;38.47;;;32.53;;
35522;SDS011;61478;50.820;4.330;2024-01-07T05:23:00;37.95;;;32.58;;
35522;SDS011;61478;50.820;4.330;2024-01-07T05:25:26;38.25;;;32.40;;
35522;SDS011;61478;50.820;4.330;2024-01-07T05:27:52;35.92;;;32.10;;
35522;SDS011;61478;50.820;4.330;2024-01-07T05:30:18;37.70;;;32.60;;
35522;SDS011;61478;50.820;4.330;2024-01-07T05:32:44;39.08;;;34.60;;
35522;SDS011;61478;50.820;4.330;2024-01-07T05:35:10;36.65;;;32.38;;
35522;SDS011;61478;50.820;4.330;2024-01-07T05:37:36;38.58;;;32.72;;
35522;SDS011;61478;50.820;4.330;2024-01-07T05:40:02;38.63;;;34.63;;
35522;SDS011;61478;50.820;4.330;2024-01-07T05:42:32;37.75;;;33.67;;
35522;SDS011;61478;50.820;4.330;2024-01-07T05:44:58;37.47;;;33.45;;
35522;SDS011;61478;50.820;4.330;2024-01-07T05:47:28;37.03;;;32.53;;
35522;SDS011;61478;50.820;4.330;2024-01-07T05:49:57;33.20;;;29.70;;
35522;SDS011;61478;50.820;4.330;2024-01-07T05:52:27;34.28;;;30.65;;
35522;SDS011;61478;50.820;4.330;2024-01-07T05:55:01;32.85;;;29.35;;
35522;SDS011;61478;50.820;4.330;2024-01-07T05:57:31;35.03;;;31.30;;
35522;SDS011;61478;50.820;4.330;2024-01-07T05:59:58;33.13;;;29.63;;
35522;SDS011;61478;50.820;4.330;2024-01-07T06:02:34;34.28;;;30.55;;
35522;SDS011;61478;50.820;4.330;2024-01-07T06:05:04;36.08;;;31.73;;
35522;SDS011;61478;50.820;4.330;2024-01-07T06:07:33;35.00;;;31.27;;
35522;SDS011;61478;50.820;4.330;2024-01-07T06:09:59;37.78;;;33.33;;
35522;SDS011;61478;50.820;4.330;2024-01-07T06:12:25;38.53;;;33.70;;
35522;SDS011;61478;50.820;4.330;2024-01-07T06:14:51;40.17;;;33.92;;
35522;SDS011;61478;50.820;4.330;2024-01-07T06:17:23;39.53;;;32.85;;
35522;SDS011;61478;50.820;4.330;2024-01-07T06:19:55;38.28;;;34.17;;
35522;SDS011;61478;50.820;4.330;2024-01-07T06:22:25;37.47;;;33.03;;
35522;SDS011;61478;50.820;4.330;2024-01-07T06:25:06;36.95;;;32.42;;
35522;SDS011;61478;50.820;4.330;2024-01-07T06:27:32;37.75;;;33.63;;
35522;SDS011;61478;50.820;4.330;2024-01-07T06:29:59;38.83;;;33.30;;
35522;SDS011;61478;50.820;4.330;2024-01-07T06:32:28;37.78;;;32.38;;
35522;SDS011;61478;50.820;4.330;2024-01-07T06:34:59;40.05;;;34.33;;
35522;SDS011;61478;50.820;4.330;2024-01-07T06:37:29;39.40;;;35.13;;
35522;SDS011;61478;50.820;4.330;2024-01-07T06:40:05;38.35;;;32.88;;
35522;SDS011;61478;50.820;4.330;2024-01-07T06:42:31;38.53;;;33.42;;
35522;SDS011;61478;50.820;4.330;2024-01-07T06:44:57;39.20;;;33.15;;
35522;SDS011;61478;50.820;4.330;2024-01-07T06:47:23;38.47;;;34.28;;
35522;SDS011;61478;50.820;4.330;2024-01-07T06:49:49;44.00;;;35.75;;
35522;SDS011;61478;50.820;4.330;2024-01-07T06:52:16;39.17;;;34.92;;
35522;SDS011;61478;50.820;4.330;2024-01-07T06:54:44;38.70;;;34.53;;
35522;SDS011;61478;50.820;4.330;2024-01-07T06:57:11;41.25;;;35.67;;
35522;SDS011;61478;50.820;4.330;2024-01-07T06:59:40;40.50;;;33.95;;
35522;SDS011;61478;50.820;4.330;2024-01-07T07:02:06;42.05;;;34.55;;
35522;SDS011;61478;50.820;4.330;2024-01-07T07:04:32;42.15;;;34.15;;
35522;SDS011;61478;50.820;4.330;2024-01-07T07:06:58;42.45;;;35.90;;
35522;SDS011;61478;50.820;4.330;2024-01-07T07:09:25;42.63;;;35.10;;
35522;SDS011;61478;50.820;4.330;2024-01-07T07:11:51;47.97;;;34.30;;
35522;SDS011;61478;50.820;4.330;2024-01-07T07:14:17;42.67;;;34.63;;
35522;SDS011;61478;50.820;4.330;2024-01-07T07:16:48;43.30;;;34.25;;
35522;SDS011;61478;50.820;4.330;2024-01-07T07:19:21;42.80;;;32.92;;
35522;SDS011;61478;50.820;4.330;2024-01-07T07:21:52;43.95;;;34.33;;
35522;SDS011;61478;50.820;4.330;2024-01-07T07:24:22;42.10;;;32.95;;
35522;SDS011;61478;50.820;4.330;2024-01-07T07:26:54;44.75;;;34.17;;
35522;SDS011;61478;50.820;4.330;2024-01-07T07:29:20;46.85;;;33.72;;
35522;SDS011;61478;50.820;4.330;2024-01-07T07:31:49;44.25;;;34.33;;
35522;SDS011;61478;50.820;4.330;2024-01-07T07:34:15;48.63;;;36.80;;
35522;SDS011;61478;50.820;4.330;2024-01-07T07:36:41;44.63;;;37.55;;
35522;SDS011;61478;50.820;4.330;2024-01-07T07:39:10;50.38;;;38.95;;
35522;SDS011;61478;50.820;4.330;2024-01-07T07:41:36;55.13;;;40.10;;
35522;SDS011;61478;50.820;4.330;2024-01-07T07:44:13;48.83;;;38.22;;
35522;SDS011;61478;50.820;4.330;2024-01-07T07:46:43;49.85;;;38.33;;
35522;SDS011;61478;50.820;4.330;2024-01-07T07:49:15;52.90;;;38.30;;
35522;SDS011;61478;50.820;4.330;2024-01-07T07:51:43;55.20;;;40.10;;
35522;SDS011;61478;50.820;4.330;2024-01-07T07:54:09;52.17;;;38.33;;
35522;SDS011;61478;50.820;4.330;2024-01-07T07:56:44;48.63;;;38.25;;
35522;SDS011;61478;50.820;4.330;2024-01-07T07:59:10;52.17;;;39.42;;
35522;SDS011;61478;50.820;4.330;2024-01-07T08:01:40;49.60;;;40.42;;
35522;SDS011;61478;50.820;4.330;2024-01-07T08:04:09;48.10;;;37.58;;
35522;SDS011;61478;50.820;4.330;2024-01-07T08:06:35;41.80;;;35.60;;
35522;SDS011;61478;50.820;4.330;2024-01-07T08:09:01;48.78;;;36.53;;
35522;SDS011;61478;50.820;4.330;2024-01-07T08:11:28;46.00;;;36.17;;
35522;SDS011;61478;50.820;4.330;2024-01-07T08:13:55;44.28;;;35.22;;
35522;SDS011;61478;50.820;4.330;2024-01-07T08:16:21;47.65;;;37.35;;
35522;SDS011;61478;50.820;4.330;2024-01-07T08:18:47;46.65;;;35.83;;
35522;SDS011;61478;50.820;4.330;2024-01-07T08:21:13;44.75;;;36.85;;
35522;SDS011;61478;50.820;4.330;2024-01-07T08:23:38;48.00;;;40.08;;
35522;SDS011;61478;50.820;4.330;2024-01-07T08:26:04;55.65;;;43.38;;
35522;SDS011;61478;50.820;4.330;2024-01-07T08:28:30;50.97;;;41.45;;
35522;SDS011;61478;50.820;4.330;2024-01-07T08:30:56;54.30;;;41.47;;
35522;SDS011;61478;50.820;4.330;2024-01-07T08:33:22;55.78;;;42.53;;
35522;SDS011;61478;50.820;4.330;2024-01-07T08:35:48;52.38;;;40.83;;
35522;SDS011;61478;50.820;4.330;2024-01-07T08:38:14;51.13;;;39.70;;
35522;SDS011;61478;50.820;4.330;2024-01-07T08:40:42;46.50;;;37.95;;
35522;SDS011;61478;50.820;4.330;2024-01-07T08:43:08;48.88;;;37.92;;
35522;SDS011;61478;50.820;4.330;2024-01-07T08:45:34;47.30;;;34.97;;
35522;SDS011;61478;50.820;4.330;2024-01-07T08:48:03;45.83;;;36.05;;
35522;SDS011;61478;50.820;4.330;2024-01-07T08:50:29;45.70;;;36.97;;
35522;SDS011;61478;50.820;4.330;2024-01-07T08:52:56;44.15;;;34.90;;
35522;SDS011;61478;50.820;4.330;2024-01-07T08:55:22;41.15;;;34.22;;
35522;SDS011;61478;50.820;4.330;2024-01-07T08:57:48;42.63;;;33.97;;
35522;SDS011;61478;50.820;4.330;2024-01-07T09:00:14;39.42;;;32.70;;
35522;SDS011;61478;50.820;4.330;2024-01-07T09:02:44;39.03;;;32.00;;
35522;SDS011;61478;50.820;4.330;2024-01-07T09:05:10;33.70;;;29.92;;
35522;SDS011;61478;50.820;4.330;2024-01-07T09:07:39;34.53;;;28.23;;
35522;SDS011;61478;50.820;4.330;2024-01-07T09:10:05;33.70;;;28.65;;
35522;SDS011;61478;50.820;4.330;2024-01-07T09:12:36;31.77;;;27.02;;
35522;SDS011;61478;50.820;4.330;2024-01-07T09:15:03;31.40;;;28.10;;
35522;SDS011;61478;50.820;4.330;2024-01-07T09:17:34;29.23;;;25.90;;
35522;SDS011;61478;50.820;4.330;2024-01-07T09:20:01;31.48;;;25.38;;
35522;SDS011;61478;50.820;4.330;2024-01-07T09:22:29;25.42;;;22.85;;
35522;SDS011;61478;50.820;4.330;2024-01-07T09:24:58;30.00;;;25.65;;
35522;SDS011;61478;50.820;4.330;2024-01-07T09:27:27;25.50;;;22.70;;
35522;SDS011;61478;50.820;4.330;2024-01-07T09:29:53;24.77;;;22.13;;
35522;SDS011;61478;50.820;4.330;2024-01-07T09:32:19;26.25;;;22.27;;
35522;SDS011;61478;50.820;4.330;2024-01-07T09:34:47;27.98;;;22.33;;
35522;SDS011;61478;50.820;4.330;2024-01-07T09:37:17;25.35;;;22.55;;
35522;SDS011;61478;50.820;4.330;2024-01-07T09:39:43;25.13;;;22.33;;
35522;SDS011;61478;50.820;4.330;2024-01-07T09:42:12;26.23;;;23.42;;
35522;SDS011;61478;50.820;4.330;2024-01-07T09:44:39;25.90;;;22.77;;
35522;SDS011;61478;50.820;4.330;2024-01-07T09:47:06;26.13;;;23.02;;
35522;SDS011;61478;50.820;4.330;2024-01-07T09:49:35;26.67;;;23.65;;
35522;SDS011;61478;50.820;4.330;2024-01-07T09:52:01;26.83;;;23.55;;
35522;SDS011;61478;50.820;4.330;2024-01-07T09:54:30;26.50;;;23.65;;
35522;SDS011;61478;50.820;4.330;2024-01-07T09:57:03;28.70;;;25.50;;
35522;SDS011;61478;50.820;4.330;2024-01-07T09:59:33;27.45;;;24.58;;
35522;SDS011;61478;50.820;4.330;2024-01-07T10:01:59;29.60;;;26.42;;
35522;SDS011;61478;50.820;4.330;2024-01-07T10:04:31;32.20;;;27.33;;
35522;SDS011;61478;50.820;4.330;2024-01-07T10:06:57;29.85;;;26.67;;
35522;SDS011;61478;50.820;4.330;2024-01-07T10:09:24;29.17;;;26.15;;
35522;SDS011;61478;50.820;4.330;2024-01-07T10:11:54;30.02;;;26.27;;
35522;SDS011;61478;50.820;4.330;2024-01-07T10:14:20;29.13;;;26.05;;
35522;SDS011;61478;50.820;4.330;2024-01-07T10:16:48;29.95;;;26.67;;
35522;SDS011;61478;50.820;4.330;2024-01-07T10:19:23;30.17;;;26.98;;
35522;SDS011;61478;50.820;4.330;2024-01-07T10:22:02;32.00;;;28.52;;
35522;SDS011;61478;50.820;4.330;2024-01-07T10:24:38;33.90;;;28.88;;
35522;SDS011;61478;50.820;4.330;2024-01-07T10:27:05;30.83;;;27.52;;
35522;SDS011;61478;50.820;4.330;2024-01-07T10:29:32;30.17;;;26.52;;
35522;SDS011;61478;50.820;4.330;2024-01-07T10:32:01;31.73;;;27.58;;
35522;SDS011;61478;50.820;4.330;2024-01-07T10:34:33;30.52;;;27.33;;
35522;SDS011;61478;50.820;4.330;2024-01-07T10:37:01;29.73;;;26.52;;
35522;SDS011;61478;50.820;4.330;2024-01-07T10:39:28;31.75;;;28.30;;
35522;SDS011;61478;50.820;4.330;2024-01-07T10:41:55;29.30;;;26.30;;
35522;SDS011;61478;50.820;4.330;2024-01-07T10:44:26;31.35;;;26.40;;
35522;SDS011;61478;50.820;4.330;2024-01-07T10:46:58;27.88;;;24.85;;
35522;SDS011;61478;50.820;4.330;2024-01-07T10:49:25;28.17;;;25.17;;
35522;SDS011;61478;50.820;4.330;2024-01-07T10:52:08;30.52;;;26.33;;
35522;SDS011;61478;50.820;4.330;2024-01-07T10:54:36;28.17;;;25.00;;
35522;SDS011;61478;50.820;4.330;2024-01-07T10:57:07;28.98;;;25.48;;
35522;SDS011;61478;50.820;4.330;2024-01-07T10:59:44;30.92;;;27.13;;
35522;SDS011;61478;50.820;4.330;2024-01-07T11:02:11;32.55;;;28.27;;
35522;SDS011;61478;50.820;4.330;2024-01-07T11:04:51;33.33;;;28.27;;
35522;SDS011;61478;50.820;4.330;2024-01-07T11:08:13;33.28;;;27.80;;
35522;SDS011;61478;50.820;4.330;2024-01-07T11:10:48;31.58;;;27.27;;
35522;SDS011;61478;50.820;4.330;2024-01-07T11:16:40;32.42;;;25.55;;
35522;SDS011;61478;50.820;4.330;2024-01-07T11:19:04;27.00;;;24.10;;
35522;SDS011;61478;50.820;4.330;2024-01-07T11:21:30;29.98;;;26.67;;
35522;SDS011;61478;50.820;4.330;2024-01-07T11:23:56;29.85;;;25.10;;
35522;SDS011;61478;50.820;4.330;2024-01-07T11:26:22;32.08;;;26.02;;
35522;SDS011;61478;50.820;4.330;2024-01-07T11:37:12;22.95;;;20.48;;
35522;SDS011;61478;50.820;4.330;2024-01-07T11:39:41;30.42;;;21.52;;
35522;SDS011;61478;50.820;4.330;2024-01-07T11:42:09;24.83;;;20.30;;
35522;SDS011;61478;50.820;4.330;2024-01-07T11:44:48;21.70;;;18.58;;
35522;SDS011;61478;50.820;4.330;2024-01-07T11:47:18;21.50;;;18.80;;
35522;SDS011;61478;50.820;4.330;2024-01-07T11:49:45;23.50;;;19.23;;
35522;SDS011;61478;50.820;4.330;2024-01-07T11:52:11;25.20;;;19.83;;
35522;SDS011;61478;50.820;4.330;2024-01-07T11:54:38;21.33;;;19.02;;
35522;SDS011;61478;50.820;4.330;2024-01-07T11:57:05;25.10;;;19.00;;
35522;SDS011;61478;50.820;4.330;2024-01-07T11:59:35;23.05;;;18.17;;
35522;SDS011;61478;50.820;4.330;2024-01-07T12:02:02;22.27;;;19.92;;
35522;SDS011;61478;50.820;4.330;2024-01-07T12:04:34;22.27;;;19.55;;
35522;SDS011;61478;50.820;4.330;2024-01-07T12:07:00;29.40;;;22.58;;
35522;SDS011;61478;50.820;4.330;2024-01-07T12:09:28;27.75;;;21.52;;
35522;SDS011;61478;50.820;4.330;2024-01-07T12:11:54;23.80;;;19.55;;
35522;SDS011;61478;50.820;4.330;2024-01-07T12:14:20;27.88;;;18.95;;
35522;SDS011;61478;50.820;4.330;2024-01-07T12:16:46;25.00;;;20.40;;
35522;SDS011;61478;50.820;4.330;2024-01-07T12:19:13;26.90;;;20.17;;
35522;SDS011;61478;50.820;4.330;2024-01-07T12:21:42;22.42;;;18.30;;
35522;SDS011;61478;50.820;4.330;2024-01-07T12:24:08;23.90;;;19.27;;
35522;SDS011;61478;50.820;4.330;2024-01-07T12:26:34;21.40;;;18.92;;
35522;SDS011;61478;50.820;4.330;2024-01-07T12:29:06;21.67;;;17.98;;
35522;SDS011;61478;50.820;4.330;2024-01-07T12:31:33;22.60;;;17.92;;
35522;SDS011;61478;50.820;4.330;2024-01-07T12:33:59;25.30;;;17.02;;
35522;SDS011;61478;50.820;4.330;2024-01-07T12:36:29;21.15;;;17.88;;
35522;SDS011;61478;50.820;4.330;2024-01-07T12:38:55;23.17;;;18.35;;
35522;SDS011;61478;50.820;4.330;2024-01-07T12:41:22;24.67;;;17.75;;
35522;SDS011;61478;50.820;4.330;2024-01-07T12:43:48;24.20;;;16.88;;
35522;SDS011;61478;50.820;4.330;2024-01-07T12:46:15;22.88;;;17.02;;
35522;SDS011;61478;50.820;4.330;2024-01-07T12:48:41;20.85;;;16.08;;
35522;SDS011;61478;50.820;4.330;2024-01-07T12:51:07;22.85;;;16.88;;
35522;SDS011;61478;50.820;4.330;2024-01-07T12:53:33;21.33;;;16.27;;
35522;SDS011;61478;50.820;4.330;2024-01-07T12:55:59;24.00;;;16.55;;
35522;SDS011;61478;50.820;4.330;2024-01-07T12:58:25;24.65;;;17.25;;
35522;SDS011;61478;50.820;4.330;2024-01-07T13:00:51;21.98;;;16.08;;
35522;SDS011;61478;50.820;4.330;2024-01-07T13:03:17;19.35;;;14.68;;
35522;SDS011;61478;50.820;4.330;2024-01-07T13:05:44;23.67;;;16.90;;
35522;SDS011;61478;50.820;4.330;2024-01-07T13:08:15;19.75;;;15.35;;
35522;SDS011;61478;50.820;4.330;2024-01-07T13:10:43;21.35;;;15.48;;
35522;SDS011;61478;50.820;4.330;2024-01-07T13:13:10;24.08;;;15.13;;
35522;SDS011;61478;50.820;4.330;2024-01-07T13:15:37;21.00;;;16.48;;
35522;SDS011;61478;50.820;4.330;2024-01-07T13:18:06;23.42;;;16.42;;
35522;SDS011;61478;50.820;4.330;2024-01-07T13:20:36;19.60;;;16.38;;
35522;SDS011;61478;50.820;4.330;2024-01-07T13:23:05;21.83;;;16.60;;
35522;SDS011;61478;50.820;4.330;2024-01-07T13:25:31;23.70;;;18.08;;
35522;SDS011;61478;50.820;4.330;2024-01-07T13:28:00;21.17;;;16.23;;
35522;SDS011;61478;50.820;4.330;2024-01-07T13:30:26;20.25;;;16.05;;
35522;SDS011;61478;50.820;4.330;2024-01-07T13:32:55;24.35;;;17.58;;
35522;SDS011;61478;50.820;4.330;2024-01-07T13:35:22;20.95;;;16.70;;
35522;SDS011;61478;50.820;4.330;2024-01-07T13:37:48;20.70;;;16.45;;
35522;SDS011;61478;50.820;4.330;2024-01-07T13:40:14;21.23;;;16.10;;
35522;SDS011;61478;50.820;4.330;2024-01-07T13:42:40;22.55;;;16.58;;
35522;SDS011;61478;50.820;4.330;2024-01-07T13:45:06;23.15;;;14.90;;
35522;SDS011;61478;50.820;4.330;2024-01-07T13:47:32;18.05;;;15.15;;
35522;SDS011;61478;50.820;4.330;2024-01-07T13:50:01;16.27;;;14.40;;
35522;SDS011;61478;50.820;4.330;2024-01-07T13:52:29;20.88;;;14.45;;
35522;SDS011;61478;50.820;4.330;2024-01-07T13:55:00;16.92;;;13.65;;
35522;SDS011;61478;50.820;4.330;2024-01-07T13:57:30;15.63;;;13.70;;
35522;SDS011;61478;50.820;4.330;2024-01-07T13:59:59;20.95;;;13.80;;
35522;SDS011;61478;50.820;4.330;2024-01-07T14:02:25;14.90;;;12.65;;
35522;SDS011;61478;50.820;4.330;2024-01-07T14:04:50;16.02;;;14.32;;
35522;SDS011;61478;50.820;4.330;2024-01-07T14:07:16;15.18;;;13.57;;
35522;SDS011;61478;50.820;4.330;2024-01-07T14:09:42;16.05;;;11.90;;
35522;SDS011;61478;50.820;4.330;2024-01-07T14:12:08;14.07;;;12.65;;
35522;SDS011;61478;50.820;4.330;2024-01-07T14:14:34;18.02;;;13.60;;
35522;SDS011;61478;50.820;4.330;2024-01-07T14:17:00;17.75;;;14.35;;
35522;SDS011;61478;50.820;4.330;2024-01-07T14:19:26;15.15;;;12.07;;
35522;SDS011;61478;50.820;4.330;2024-01-07T14:21:52;47.28;;;13.93;;
35522;SDS011;61478;50.820;4.330;2024-01-07T14:24:18;18.58;;;12.57;;
35522;SDS011;61478;50.820;4.330;2024-01-07T14:26:44;12.80;;;11.50;;
35522;SDS011;61478;50.820;4.330;2024-01-07T14:29:12;12.25;;;10.93;;
35522;SDS011;61478;50.820;4.330;2024-01-07T14:31:39;15.40;;;12.88;;
35522;SDS011;61478;50.820;4.330;2024-01-07T14:34:08;14.40;;;12.90;;
35522;SDS011;61478;50.820;4.330;2024-01-07T14:36:33;16.88;;;13.05;;